Time;durP1;ratioP1;P1;durP2;ratioP2;P2;SDS_P1;SDS_P2;PMS_P1;PMS_P2;Temp;Humidity;BMP_temperature;BMP_pressure;BME280_temperature;BME280_humidity;BME280_pressure;Samples;Min_cycle;Max_cycle;Signal;HPM_P1;HPM_P2
2022/05/21 00:02:22;;;;;;;4.53;2.05;;;;;;;18.84;90.20;100635.16;4955725;28;20022;-66
2022/05/21 00:04:47;;;;;;;5.10;2.78;;;;;;;18.71;89.46;100647.56;4972935;28;20034;-66
2022/05/21 00:07:13;;;;;;;4.22;2.58;;;;;;;18.66;90.44;100649.66;4972460;28;20073;-66
2022/05/21 00:09:38;;;;;;;5.63;2.67;;;;;;;18.59;91.19;100642.84;4972771;28;20041;-66
2022/05/21 00:12:05;;;;;;;5.95;2.40;;;;;;;18.61;91.16;100662.50;4973236;28;20027;-66
2022/05/21 00:14:33;;;;;;;6.07;2.85;;;;;;;18.53;91.03;100668.34;4972737;28;20031;-64
2022/05/21 00:16:58;;;;;;;4.97;2.92;;;;;;;18.41;91.29;100670.81;4968098;28;20026;-64
2022/05/21 00:19:24;;;;;;;4.93;2.95;;;;;;;18.32;92.34;100669.44;4973056;28;20035;-64
2022/05/21 00:21:49;;;;;;;5.65;3.00;;;;;;;18.25;92.47;100676.97;4971338;28;20035;-64
2022/05/21 00:24:15;;;;;;;6.03;2.80;;;;;;;18.18;92.66;100682.78;4972636;28;20037;-63
2022/05/21 00:26:40;;;;;;;6.35;3.45;;;;;;;18.10;93.37;100683.16;4972291;28;20141;-63
2022/05/21 00:29:06;;;;;;;5.32;3.17;;;;;;;18.05;94.20;100679.88;4976032;28;20030;-63
2022/05/21 00:31:31;;;;;;;5.78;2.78;;;;;;;17.97;94.43;100676.69;4973562;28;20026;-63
2022/05/21 00:33:57;;;;;;;6.03;4.07;;;;;;;17.92;94.67;100681.44;4972379;28;20038;-63
2022/05/21 00:36:22;;;;;;;9.23;4.00;;;;;;;17.84;94.55;100675.59;4972325;28;20487;-63
2022/05/21 00:38:47;;;;;;;9.50;4.50;;;;;;;17.75;94.11;100681.47;4972511;28;20117;-63
2022/05/21 00:41:15;;;;;;;7.95;3.78;;;;;;;17.66;94.56;100684.63;4972164;28;20617;-65
2022/05/21 00:43:49;;;;;;;6.70;4.22;;;;;;;17.59;95.25;100685.00;4972280;28;20482;-65
2022/05/21 00:46:21;;;;;;;6.68;3.80;;;;;;;17.54;95.24;100684.38;4972615;28;20034;-65
2022/05/21 00:49:06;;;;;;;8.18;4.35;;;;;;;17.55;95.67;100689.69;4972349;28;20130;-65
2022/05/21 00:51:48;;;;;;;8.55;4.53;;;;;;;17.50;94.91;100691.72;4973774;28;20033;-65
2022/05/21 00:54:16;;;;;;;6.50;3.92;;;;;;;17.47;95.33;100697.25;4983228;28;20453;-65
2022/05/21 00:56:56;;;;;;;9.43;4.45;;;;;;;17.44;94.58;100708.16;4993218;28;20397;-65
2022/05/21 01:02:08;;;;;;;5.55;3.75;;;;;;;17.47;93.41;100705.31;4959408;28;20286;-65
2022/05/21 01:07:04;;;;;;;6.15;3.92;;;;;;;17.41;92.93;100715.50;5009764;28;20057;-78
2022/05/21 01:09:32;;;;;;;8.10;4.57;;;;;;;17.32;93.97;100683.66;5012257;28;20014;-79
2022/05/21 01:11:58;;;;;;;7.82;4.15;;;;;;;17.31;93.84;100685.50;5010065;28;20041;-79
2022/05/21 01:14:24;;;;;;;6.43;3.90;;;;;;;17.30;93.66;100689.09;5004641;28;20030;-79
2022/05/21 01:16:51;;;;;;;11.05;4.78;;;;;;;17.36;93.52;100699.59;5011586;28;20046;-79
2022/05/21 01:19:16;;;;;;;8.25;4.68;;;;;;;17.17;93.19;100677.22;5011136;28;20498;-78
2022/05/21 01:21:43;;;;;;;7.25;4.18;;;;;;;17.14;93.53;100688.13;5012296;28;20021;-79
2022/05/21 01:24:10;;;;;;;7.38;4.43;;;;;;;16.89;93.90;100658.88;4994159;28;20100;-79
2022/05/21 01:26:36;;;;;;;6.50;4.10;;;;;;;16.83;94.53;100669.06;5026413;28;20464;-79
2022/05/21 01:29:04;;;;;;;6.70;3.90;;;;;;;16.90;95.08;100702.75;5014040;28;20500;-79
2022/05/21 01:31:32;;;;;;;7.13;4.82;;;;;;;16.78;94.87;100706.00;5019235;28;20486;-79
2022/05/21 01:33:59;;;;;;;7.18;3.92;;;;;;;16.74;95.14;100707.09;5014513;28;20392;-79
2022/05/21 01:36:25;;;;;;;6.20;3.80;;;;;;;16.53;95.84;100681.22;5014079;28;20021;-79
2022/05/21 01:38:50;;;;;;;9.63;3.90;;;;;;;16.43;96.04;100687.94;5029666;28;20032;-78
2022/05/21 01:41:16;;;;;;;10.98;4.25;;;;;;;16.34;95.28;100693.72;5008934;28;20348;-78
2022/05/21 01:46:27;;;;;;;8.15;3.83;;;;;;;16.29;95.05;100712.72;5009678;28;20088;-79
2022/05/21 01:48:53;;;;;;;6.13;3.67;;;;;;;16.43;94.13;100725.53;5026353;28;20033;-78
2022/05/21 01:51:20;;;;;;;8.63;4.43;;;;;;;16.29;93.49;100699.28;5025988;28;20356;-79
2022/05/21 01:53:46;;;;;;;6.40;3.70;;;;;;;16.37;93.36;100718.63;5010811;28;20370;-79
2022/05/21 01:56:12;;;;;;;6.55;4.05;;;;;;;16.41;94.08;100733.66;4995851;28;20029;-78
2022/05/21 01:58:39;;;;;;;9.98;4.25;;;;;;;16.38;94.15;100724.84;5005870;28;20040;-79
2022/05/21 02:01:06;;;;;;;6.03;3.95;;;;;;;16.32;93.34;100719.78;5011664;28;20033;-79
2022/05/21 02:03:32;;;;;;;5.63;3.28;;;;;;;16.40;93.06;100748.03;5010953;28;20030;-79
2022/05/21 02:05:57;;;;;;;8.57;4.70;;;;;;;16.32;93.56;100741.25;5012353;28;20054;-79
2022/05/21 02:08:23;;;;;;;8.45;5.38;;;;;;;16.29;92.53;100749.44;5010807;28;20030;-79
2022/05/21 02:10:49;;;;;;;6.65;3.88;;;;;;;16.15;92.21;100747.34;5005256;28;20029;-79
2022/05/21 02:13:18;;;;;;;10.45;4.03;;;;;;;16.04;91.80;100738.03;4977304;28;20095;-79
2022/05/21 02:15:44;;;;;;;6.78;3.90;;;;;;;15.98;91.84;100749.88;5012952;28;20435;-79
2022/05/21 02:18:12;;;;;;;6.18;3.72;;;;;;;15.89;92.61;100750.28;4992957;28;20401;-79
2022/05/21 02:20:38;;;;;;;8.20;3.45;;;;;;;15.68;92.02;100722.56;4975985;28;20034;-79
2022/05/21 02:23:03;;;;;;;5.32;3.28;;;;;;;15.89;93.01;100765.50;4975481;28;20033;-79
2022/05/21 02:25:29;;;;;;;5.30;3.30;;;;;;;15.77;93.15;100740.06;4975554;28;20030;-79
2022/05/21 02:27:54;;;;;;;5.47;3.50;;;;;;;15.81;92.50;100758.66;5006926;28;20022;-79
2022/05/21 02:30:20;;;;;;;5.18;3.65;;;;;;;15.70;92.10;100749.31;5010450;28;20029;-79
2022/05/21 02:32:46;;;;;;;6.88;3.55;;;;;;;15.67;93.48;100744.06;4997655;28;20099;-79
2022/05/21 02:35:13;;;;;;;8.98;4.43;;;;;;;15.62;93.31;100746.97;5010334;28;20054;-79
2022/05/21 02:40:23;;;;;;;6.13;3.30;;;;;;;15.71;94.97;100769.84;4995936;28;20439;-79
2022/05/21 02:42:49;;;;;;;6.85;3.72;;;;;;;15.58;94.12;100756.06;5010850;28;20022;-79
2022/05/21 02:45:19;;;;;;;8.15;3.47;;;;;;;15.68;94.75;100778.03;5010187;28;20036;-79
2022/05/21 02:47:45;;;;;;;6.38;3.90;;;;;;;15.56;94.45;100749.91;5008234;28;20042;-79
2022/05/21 02:50:14;;;;;;;5.88;3.53;;;;;;;15.68;94.77;100778.88;4993508;28;20120;-79
2022/05/21 02:52:40;;;;;;;5.70;3.75;;;;;;;15.70;96.20;100778.81;4993489;28;20036;-79
2022/05/21 02:55:07;;;;;;;7.00;3.72;;;;;;;15.55;96.48;100758.88;5012524;28;20109;-79
2022/05/21 02:57:32;;;;;;;5.28;3.20;;;;;;;15.60;97.34;100772.97;5002281;28;20092;-80
2022/05/21 03:00:12;;;;;;;5.15;3.30;;;;;;;15.63;97.94;100772.81;5013418;28;20034;-79
2022/05/21 03:02:38;;;;;;;6.28;3.58;;;;;;;15.53;97.55;100768.78;4995836;28;20081;-79
2022/05/21 03:05:04;;;;;;;5.40;3.65;;;;;;;15.53;97.87;100784.00;4994960;28;20062;-79
2022/05/21 03:07:30;;;;;;;5.25;3.13;;;;;;;15.35;97.88;100764.13;5006915;28;20022;-79
2022/05/21 03:12:40;;;;;;;5.05;3.20;;;;;;;15.32;98.42;100791.06;5008762;28;20053;-79
2022/05/21 03:15:06;;;;;;;6.82;3.50;;;;;;;15.18;98.75;100790.75;4998105;28;20034;-79
2022/05/21 03:17:32;;;;;;;7.93;3.63;;;;;;;15.13;99.51;100784.69;5014863;28;20029;-79
2022/05/21 03:19:57;;;;;;;5.80;3.95;;;;;;;15.07;99.45;100784.06;5014286;28;20124;-79
2022/05/21 03:22:23;;;;;;;6.70;3.65;;;;;;;14.96;100.00;100771.06;5016055;28;20058;-79
2022/05/21 03:24:48;;;;;;;6.97;3.92;;;;;;;14.98;100.00;100774.56;5015627;28;20022;-79
2022/05/21 03:27:14;;;;;;;7.60;3.50;;;;;;;14.88;100.00;100762.44;5025633;28;20045;-78
2022/05/21 03:29:40;;;;;;;6.15;3.80;;;;;;;14.93;100.00;100776.53;5015421;28;20412;-79
2022/05/21 03:32:07;;;;;;;8.27;4.20;;;;;;;14.97;100.00;100783.53;4998256;28;20107;-79
2022/05/21 03:34:33;;;;;;;6.68;4.00;;;;;;;15.05;100.00;100797.50;5015451;28;20480;-79
2022/05/21 03:36:59;;;;;;;7.80;4.53;;;;;;;14.98;100.00;100796.00;4995061;28;20030;-79
2022/05/21 03:39:25;;;;;;;7.65;4.68;;;;;;;14.97;100.00;100794.25;4993135;28;20026;-79
2022/05/21 03:41:50;;;;;;;6.90;4.20;;;;;;;14.93;100.00;100792.63;4996533;28;20446;-79
2022/05/21 03:44:15;;;;;;;6.40;4.45;;;;;;;15.02;100.00;100796.75;4996272;28;20033;-79
2022/05/21 03:46:41;;;;;;;6.30;3.83;;;;;;;14.97;100.00;100802.28;5013386;28;20343;-79
2022/05/21 03:49:07;;;;;;;6.50;3.95;;;;;;;14.99;100.00;100797.72;5014300;28;20037;-79
2022/05/21 03:51:33;;;;;;;6.43;3.88;;;;;;;14.97;100.00;100796.94;5004699;28;20557;-79
2022/05/21 03:53:58;;;;;;;6.47;3.95;;;;;;;14.90;100.00;100790.06;4992509;28;20124;-79
2022/05/21 03:56:25;;;;;;;6.10;4.05;;;;;;;14.87;100.00;100775.91;4996280;28;20045;-79
2022/05/21 03:58:50;;;;;;;7.15;4.47;;;;;;;14.86;100.00;100777.69;4996570;28;20461;-79
2022/05/21 04:01:16;;;;;;;7.63;3.88;;;;;;;14.95;100.00;100806.81;4996513;28;20061;-79
2022/05/21 04:03:42;;;;;;;7.50;4.40;;;;;;;14.92;100.00;100785.53;5014223;28;20511;-79
2022/05/21 04:06:07;;;;;;;8.48;4.13;;;;;;;14.90;100.00;100782.03;5014046;28;20045;-79
2022/05/21 04:08:33;;;;;;;6.25;3.80;;;;;;;15.04;100.00;100792.22;5014732;28;20160;-79
2022/05/21 04:10:58;;;;;;;8.88;4.47;;;;;;;14.96;100.00;100781.78;5002085;28;20080;-79
2022/05/21 04:13:25;;;;;;;6.60;4.00;;;;;;;14.88;100.00;100773.16;4993304;28;20037;-79
2022/05/21 04:15:53;;;;;;;7.47;4.70;;;;;;;14.92;100.00;100784.63;5013251;28;20054;-79
2022/05/21 04:18:19;;;;;;;7.03;4.00;;;;;;;14.86;100.00;100784.88;5014637;28;20521;-79
2022/05/21 04:20:45;;;;;;;6.38;4.05;;;;;;;14.94;100.00;100793.50;5014691;28;20037;-79
2022/05/21 04:23:10;;;;;;;8.23;4.07;;;;;;;14.96;100.00;100802.34;5002745;28;20037;-79
2022/05/21 04:25:36;;;;;;;6.63;4.00;;;;;;;14.88;100.00;100789.22;4995425;28;20113;-79
2022/05/21 04:28:02;;;;;;;8.52;4.10;;;;;;;15.03;100.00;100798.50;4995856;28;20371;-79
2022/05/21 04:30:29;;;;;;;6.20;4.13;;;;;;;15.10;100.00;100816.97;5014716;28;20105;-79
2022/05/21 04:32:58;;;;;;;5.82;4.05;;;;;;;15.16;100.00;100810.47;5012939;28;20047;-79
2022/05/21 04:35:25;;;;;;;5.47;3.58;;;;;;;15.25;100.00;100815.50;4991780;28;20122;-79
2022/05/21 04:37:51;;;;;;;7.80;4.32;;;;;;;15.28;100.00;100816.25;5029073;28;20025;-79
2022/05/21 04:40:20;;;;;;;7.22;3.58;;;;;;;15.35;100.00;100814.22;5012549;28;20026;-79
2022/05/21 04:42:45;;;;;;;6.05;3.58;;;;;;;15.30;100.00;100798.31;4994864;28;20440;-79
2022/05/21 04:45:15;;;;;;;6.85;3.83;;;;;;;15.42;100.00;100813.94;5012525;28;20026;-79
2022/05/21 04:47:41;;;;;;;7.65;3.90;;;;;;;15.45;100.00;100808.44;5011787;28;20076;-79
2022/05/21 04:50:08;;;;;;;6.90;3.80;;;;;;;15.47;99.88;100817.31;5012860;28;20105;-80
2022/05/21 04:52:35;;;;;;;5.00;3.53;;;;;;;15.60;99.62;100820.38;4995777;28;20030;-79
2022/05/21 04:55:01;;;;;;;6.95;3.67;;;;;;;15.78;99.00;100816.94;5013383;28;20029;-79
2022/05/21 04:57:27;;;;;;;5.25;3.90;;;;;;;15.75;98.71;100801.84;5014363;28;20030;-79
2022/05/21 04:59:52;;;;;;;6.00;3.53;;;;;;;15.98;96.46;100805.38;5013360;28;20112;-79
2022/05/21 05:02:18;;;;;;;8.38;3.90;;;;;;;16.13;94.89;100823.53;4996455;28;20044;-79
2022/05/21 05:04:43;;;;;;;7.72;3.25;;;;;;;16.11;94.70;100806.63;5013144;28;20036;-79
2022/05/21 05:07:09;;;;;;;7.55;3.38;;;;;;;16.19;93.67;100801.78;5014200;28;20052;-79
2022/05/21 05:09:40;;;;;;;7.18;3.17;;;;;;;16.45;92.88;100826.59;5028927;28;20022;-79
2022/05/21 05:12:06;;;;;;;7.35;2.97;;;;;;;16.46;92.52;100827.47;5012579;28;20030;-79
2022/05/21 05:14:32;;;;;;;5.72;3.03;;;;;;;16.52;91.39;100816.47;4993716;28;20028;-79
2022/05/21 05:16:59;;;;;;;4.78;2.80;;;;;;;16.55;89.77;100809.16;4994843;28;20121;-79
2022/05/21 05:19:24;;;;;;;3.60;2.42;;;;;;;16.47;88.73;100788.94;4993550;28;20025;-79
2022/05/21 05:21:50;;;;;;;6.35;3.03;;;;;;;16.69;88.80;100808.50;4994108;28;20109;-79
2022/05/21 05:24:15;;;;;;;4.18;2.50;;;;;;;16.62;89.17;100782.88;5011590;28;20453;-79
2022/05/21 05:26:41;;;;;;;3.78;2.30;;;;;;;16.94;88.49;100803.78;5009537;28;20047;-79
2022/05/21 05:29:06;;;;;;;4.20;2.40;;;;;;;16.96;86.60;100808.16;4996127;28;20034;-79
2022/05/21 05:31:32;;;;;;;5.13;2.60;;;;;;;17.05;86.17;100821.16;4996166;28;20165;-79
2022/05/21 05:33:57;;;;;;;5.53;2.35;;;;;;;17.10;86.49;100820.94;4992609;28;20033;-79
2022/05/21 05:36:24;;;;;;;5.22;2.13;;;;;;;17.07;84.59;100818.41;4991803;28;20026;-79
2022/05/21 05:38:49;;;;;;;3.63;2.10;;;;;;;17.07;84.85;100811.22;4993279;28;20109;-79
2022/05/21 05:41:15;;;;;;;3.53;2.17;;;;;;;17.13;84.39;100810.06;5003690;28;20528;-79
2022/05/21 05:43:40;;;;;;;4.85;1.90;;;;;;;17.35;82.51;100816.16;5010123;28;20030;-79
2022/05/21 05:46:05;;;;;;;13.48;2.00;;;;;;;17.47;81.88;100815.63;5013324;28;20103;-78
2022/05/21 05:48:31;;;;;;;3.97;2.05;;;;;;;17.48;81.45;100800.34;5007169;28;20085;-79
2022/05/21 05:50:59;;;;;;;3.60;1.80;;;;;;;17.62;81.23;100824.75;5004867;28;20062;-79
2022/05/21 05:53:25;;;;;;;3.85;1.75;;;;;;;17.64;81.87;100823.75;4995485;28;20036;-79
2022/05/21 05:55:54;;;;;;;3.72;2.03;;;;;;;17.79;81.35;100822.97;4994429;28;20115;-79
2022/05/21 06:01:06;;;;;;;3.17;1.60;;;;;;;18.04;76.92;100815.44;5013424;28;20044;-79
2022/05/21 06:03:32;;;;;;;1.92;1.40;;;;;;;18.30;76.52;100814.97;5012762;28;20041;-78
2022/05/21 06:05:58;;;;;;;3.88;1.60;;;;;;;18.71;74.66;100820.06;4994979;28;20050;-78
2022/05/21 06:08:27;;;;;;;4.32;1.73;;;;;;;18.82;72.58;100839.22;4995511;28;20116;-79
2022/05/21 06:10:53;;;;;;;3.38;1.50;;;;;;;18.92;72.44;100827.88;5000785;28;20030;-79
2022/05/21 06:13:19;;;;;;;3.47;1.20;;;;;;;18.96;71.97;100815.13;4991670;28;20026;-79
2022/05/21 06:15:44;;;;;;;2.85;1.40;;;;;;;18.90;70.16;100815.41;4993793;28;20037;-79
2022/05/21 06:18:16;;;;;;;4.10;1.40;;;;;;;18.81;71.38;100829.41;4995012;28;20571;-79
2022/05/21 06:20:43;;;;;;;3.05;1.10;;;;;;;18.75;69.87;100832.41;5012255;28;20435;-79
2022/05/21 06:23:09;;;;;;;5.40;1.50;;;;;;;18.65;71.46;100828.50;5012417;28;20018;-79
2022/05/21 06:25:34;;;;;;;3.08;1.00;;;;;;;18.85;70.87;100849.84;5012570;28;20032;-79
2022/05/21 06:28:01;;;;;;;3.15;1.17;;;;;;;18.86;71.26;100832.72;5011881;28;20034;-79
2022/05/21 06:30:30;;;;;;;2.53;1.00;;;;;;;18.89;69.02;100855.00;5000543;28;20026;-79
2022/05/21 06:32:56;;;;;;;1.73;1.05;;;;;;;18.85;69.27;100849.84;4990426;28;20049;-79
2022/05/21 06:35:22;;;;;;;2.70;1.40;;;;;;;18.71;68.92;100841.63;4990787;28;20030;-79
2022/05/21 06:37:48;;;;;;;5.10;1.17;;;;;;;18.78;69.08;100826.88;4993566;28;20048;-79
2022/05/21 06:40:15;;;;;;;2.47;1.05;;;;;;;19.23;69.87;100851.34;5005739;28;20400;-79
2022/05/21 06:42:41;;;;;;;2.67;1.30;;;;;;;19.23;66.66;100836.03;4993014;28;20172;-79
2022/05/21 06:45:07;;;;;;;2.38;1.30;;;;;;;19.34;66.41;100832.81;4993815;28;20098;-79
2022/05/21 06:47:33;;;;;;;2.92;1.08;;;;;;;19.34;64.86;100835.50;5012883;28;20071;-79
2022/05/21 06:49:59;;;;;;;3.00;0.85;;;;;;;19.27;63.31;100821.44;5012219;28;20068;-79
2022/05/21 06:52:27;;;;;;;3.45;0.85;;;;;;;19.52;64.20;100847.97;4996640;28;20508;-79
2022/05/21 06:54:53;;;;;;;3.85;0.95;;;;;;;19.67;64.16;100823.66;4986687;28;20029;-79
2022/05/21 06:57:21;;;;;;;2.28;0.80;;;;;;;20.07;63.24;100827.63;5012262;28;20022;-80
2022/05/21 06:59:47;;;;;;;1.45;0.90;;;;;;;19.86;62.50;100818.09;5010871;28;20034;-79
2022/05/21 07:02:13;;;;;;;2.33;0.82;;;;;;;20.07;62.52;100833.03;5010448;28;20026;-79
2022/05/21 07:07:35;;;;;;;3.05;1.25;;;;;;;20.40;60.49;100833.78;5012746;28;20141;-80
2022/05/21 07:10:07;;;;;;;2.70;1.25;;;;;;;20.84;58.52;100840.03;4995760;28;20021;-79
2022/05/21 07:12:34;;;;;;;1.93;0.93;;;;;;;21.05;57.99;100842.44;5006674;28;20125;-79
2022/05/21 07:15:00;;;;;;;2.30;0.70;;;;;;;21.05;59.30;100828.91;5011378;28;20026;-79
2022/05/21 07:17:26;;;;;;;3.22;1.35;;;;;;;21.46;58.00;100837.97;5011080;28;20034;-79
2022/05/21 07:19:51;;;;;;;4.78;1.20;;;;;;;21.72;55.08;100847.97;4994275;28;20362;-79
2022/05/21 07:22:17;;;;;;;1.80;0.70;;;;;;;21.76;53.90;100825.16;5010426;28;20037;-79
2022/05/21 07:24:43;;;;;;;1.10;0.52;;;;;;;21.83;54.14;100815.66;5027625;28;20029;-79
2022/05/21 07:27:10;;;;;;;2.88;0.98;;;;;;;22.12;54.56;100849.84;4975574;28;20121;-79
2022/05/21 07:29:36;;;;;;;1.60;0.80;;;;;;;22.24;52.01;100851.72;4990140;28;20477;-79
2022/05/21 07:32:03;;;;;;;3.72;0.70;;;;;;;22.57;51.28;100829.63;5021140;28;20034;-79
2022/05/21 07:34:28;;;;;;;2.22;0.60;;;;;;;22.78;49.66;100823.59;4994454;28;20084;-79
2022/05/21 07:36:54;;;;;;;2.55;0.60;;;;;;;22.93;48.29;100829.78;4994607;28;20053;-79
2022/05/21 07:39:19;;;;;;;4.82;0.60;;;;;;;22.87;47.62;100828.34;5012457;28;20504;-79
2022/05/21 07:41:45;;;;;;;3.65;0.70;;;;;;;22.99;46.38;100830.19;5008197;28;20026;-79
2022/05/21 07:44:10;;;;;;;1.98;0.63;;;;;;;23.38;46.35;100835.53;5012934;28;20377;-79
2022/05/21 07:46:36;;;;;;;0.82;0.57;;;;;;;23.95;45.37;100835.81;5029424;28;20248;-79
2022/05/21 07:49:01;;;;;;;2.15;0.50;;;;;;;24.37;45.71;100839.88;5008395;28;20016;-79
2022/05/21 07:51:27;;;;;;;0.55;0.40;;;;;;;24.64;44.34;100835.88;5014614;28;20034;-79
2022/05/21 07:53:52;;;;;;;1.10;0.50;;;;;;;24.59;44.15;100848.13;5010619;28;20104;-79
2022/05/21 07:56:18;;;;;;;1.95;0.63;;;;;;;24.66;44.29;100828.47;4995181;28;20032;-79
2022/05/21 07:58:44;;;;;;;1.98;0.63;;;;;;;24.85;43.24;100836.13;5010755;28;20095;-78
2022/05/21 08:01:11;;;;;;;2.63;0.60;;;;;;;24.93;43.71;100830.94;4995194;28;20033;-78
2022/05/21 08:03:38;;;;;;;1.92;0.60;;;;;;;24.83;43.28;100842.69;4992555;28;20034;-78
2022/05/21 08:06:03;;;;;;;5.18;0.73;;;;;;;24.98;43.01;100823.28;4990959;28;20057;-78
2022/05/21 08:08:29;;;;;;;2.40;0.60;;;;;;;25.20;41.81;100827.88;5009103;28;20030;-79
2022/05/21 08:10:56;;;;;;;3.53;0.80;;;;;;;25.36;43.54;100828.41;5013563;28;20033;-79
2022/05/21 08:13:21;;;;;;;3.38;0.88;;;;;;;25.63;41.85;100821.56;5005658;28;20064;-79
2022/05/21 08:15:47;;;;;;;2.28;0.68;;;;;;;25.86;42.66;100817.81;5012081;28;20069;-78
2022/05/21 08:18:13;;;;;;;1.85;0.60;;;;;;;26.09;41.73;100828.69;5014972;28;20396;-79
2022/05/21 08:20:40;;;;;;;3.60;0.50;;;;;;;26.30;40.11;100829.63;5014332;28;20032;-79
2022/05/21 08:28:34;;;;;;;1.13;0.50;;;;;;;26.33;41.15;100821.16;5013489;28;20033;-78
2022/05/21 08:31:00;;;;;;;2.50;0.63;;;;;;;26.63;41.37;100818.56;5004661;28;20030;-78
2022/05/21 08:33:27;;;;;;;1.65;0.70;;;;;;;26.59;40.17;100812.47;5014161;28;20065;-79
2022/05/21 08:35:52;;;;;;;3.65;0.70;;;;;;;26.18;38.69;100814.31;5013800;28;20037;-78
2022/05/21 08:38:18;;;;;;;2.05;0.85;;;;;;;26.27;41.47;100808.06;5014037;28;20451;-79
2022/05/21 08:40:49;;;;;;;0.98;0.43;;;;;;;26.60;41.05;100827.00;5013880;28;20056;-79
2022/05/21 08:43:40;;;;;;;1.80;0.55;;;;;;;26.26;39.92;100819.97;5013799;28;20036;-79
2022/05/21 08:46:26;;;;;;;1.23;0.50;;;;;;;26.17;41.50;100807.97;4984656;28;20116;-79
2022/05/21 08:49:15;;;;;;;2.08;0.50;;;;;;;26.74;40.94;100815.78;4995626;28;20022;-79
2022/05/21 08:51:49;;;;;;;1.25;0.60;;;;;;;26.45;42.30;100809.22;4987565;28;20492;-79
2022/05/21 08:54:18;;;;;;;2.85;1.08;;;;;;;26.74;40.89;100804.84;4995044;28;20164;-79
2022/05/21 08:56:44;;;;;;;2.42;0.98;;;;;;;26.15;41.81;100800.91;5011323;28;20497;-79
2022/05/21 08:59:11;;;;;;;1.23;0.60;;;;;;;26.02;41.16;100792.91;4997369;28;20029;-78
2022/05/21 09:01:40;;;;;;;1.65;0.65;;;;;;;26.40;41.67;100789.63;5011013;28;20029;-79
2022/05/21 09:04:08;;;;;;;2.10;0.80;;;;;;;26.43;40.61;100801.16;5011206;28;20173;-79
2022/05/21 09:06:42;;;;;;;2.75;0.80;;;;;;;26.80;41.70;100798.88;5010813;28;20050;-79
2022/05/21 09:09:37;;;;;;;2.05;0.95;;;;;;;26.96;40.35;100783.75;5012176;28;20104;-79
2022/05/21 09:12:18;;;;;;;3.30;0.70;;;;;;;27.16;42.68;100780.13;5003435;28;20037;-79
2022/05/21 09:14:46;;;;;;;1.27;0.77;;;;;;;27.31;41.25;100788.84;5013745;28;20690;-79
2022/05/21 09:17:21;;;;;;;1.60;0.80;;;;;;;27.30;40.11;100781.63;4995866;28;20041;-79
2022/05/21 09:19:50;;;;;;;2.70;0.70;;;;;;;27.41;39.83;100789.75;5012025;28;20504;-80
2022/05/21 09:22:18;;;;;;;1.95;1.35;;;;;;;27.71;40.24;100786.94;4994429;28;20544;-79
2022/05/21 09:24:48;;;;;;;3.08;0.70;;;;;;;27.72;37.93;100780.50;4994658;28;20378;-79
2022/05/21 09:27:34;;;;;;;4.55;0.90;;;;;;;27.73;40.07;100778.59;5012875;28;20030;-79
2022/05/21 09:30:26;;;;;;;2.20;1.38;;;;;;;27.64;39.20;100774.88;5012549;28;20029;-79
2022/05/21 09:33:00;;;;;;;3.17;1.00;;;;;;;27.65;40.20;100760.19;5011986;28;20133;-78
2022/05/21 09:35:32;;;;;;;1.60;0.47;;;;;;;27.45;39.43;100761.13;4995805;28;20447;-79
2022/05/21 09:38:12;;;;;;;2.00;0.55;;;;;;;27.83;40.01;100763.09;5013349;28;20037;-78
2022/05/21 09:40:39;;;;;;;1.33;0.60;;;;;;;28.00;39.34;100756.97;5014046;28;20038;-79
2022/05/21 09:46:33;;;;;;;2.28;0.50;;;;;;;27.56;39.04;100755.53;5014022;28;20065;-78
2022/05/21 09:49:18;;;;;;;0.98;0.50;;;;;;;27.47;40.77;100761.84;4992498;28;20045;-79
2022/05/21 09:52:02;;;;;;;0.88;0.38;;;;;;;27.89;39.77;100755.22;5012058;28;20045;-79
2022/05/21 09:54:42;;;;;;;1.40;0.45;;;;;;;28.23;40.17;100762.03;5011338;28;20037;-79
2022/05/21 09:57:43;;;;;;;3.08;0.60;;;;;;;28.57;38.68;100747.91;4992540;28;20040;-80
2022/05/21 10:00:24;;;;;;;2.45;0.70;;;;;;;28.41;37.99;100749.34;4945395;29;20028;-79
2022/05/21 10:02:53;;;;;;;3.13;0.43;;;;;;;28.40;37.89;100741.28;4983940;28;20030;-79
2022/05/21 10:05:26;;;;;;;1.80;0.50;;;;;;;28.43;36.84;100740.97;5004916;28;20569;-79
2022/05/21 10:10:59;;;;;;;1.83;0.50;;;;;;;28.77;36.47;100733.13;5011563;28;20084;-79
2022/05/21 10:13:30;;;;;;;;;;;;;;;28.38;36.39;100744.13;4991807;28;20034;-79
2022/05/21 10:16:28;;;;;;;1.85;0.60;;;;;;;27.84;38.63;100735.59;5002436;28;20323;-79
2022/05/21 10:19:05;;;;;;;0.68;0.47;;;;;;;27.85;38.13;100744.66;5008149;28;20035;-79
2022/05/21 10:21:49;;;;;;;1.15;0.30;;;;;;;28.39;38.86;100731.31;5011936;28;20032;-79
2022/05/21 10:24:42;;;;;;;;;;;;;;;29.09;36.96;100728.16;5009827;28;20049;-79
2022/05/21 10:27:33;;;;;;;1.73;0.30;;;;;;;29.34;36.63;100727.50;5007421;28;20004;-79
2022/05/21 10:30:06;;;;;;;2.00;0.40;;;;;;;28.91;36.40;100727.19;5011865;28;20033;-79
2022/05/21 10:32:38;;;;;;;2.83;0.57;;;;;;;28.78;34.41;100726.66;4996173;28;20029;-80
2022/05/21 10:35:34;;;;;;;2.67;0.60;;;;;;;28.94;37.15;100722.28;5011134;28;20038;-79
2022/05/21 10:38:07;;;;;;;2.88;0.30;;;;;;;28.63;36.72;100719.94;5011941;28;20026;-79
2022/05/21 10:40:43;;;;;;;2.75;0.50;;;;;;;29.09;36.44;100717.22;5010958;28;20100;-79
2022/05/21 10:43:40;;;;;;;1.08;0.30;;;;;;;28.99;35.51;100716.34;4999721;28;20025;-80
2022/05/21 10:46:20;;;;;;;1.02;0.30;;;;;;;28.69;36.09;100697.41;4994174;28;20043;-79
2022/05/21 10:48:57;;;;;;;1.40;0.40;;;;;;;28.79;35.92;100715.56;5010278;28;20037;-79
2022/05/21 10:51:34;;;;;;;3.72;0.47;;;;;;;29.16;36.14;100719.19;5011606;28;20114;-79
2022/05/21 10:54:24;;;;;;;3.50;0.60;;;;;;;29.78;35.27;100712.94;5009051;28;20048;-79
2022/05/21 10:57:04;;;;;;;1.77;0.45;;;;;;;29.02;33.71;100692.25;4975572;28;20061;-79
2022/05/21 10:59:52;;;;;;;2.60;0.50;;;;;;;28.94;36.29;100699.50;5004712;28;20033;-79
2022/05/21 11:02:36;;;;;;;3.25;0.60;;;;;;;28.97;35.70;100715.63;5011840;28;20389;-79
2022/05/21 11:05:28;;;;;;;1.73;0.30;;;;;;;29.32;33.19;100716.69;5000749;28;20050;-80
2022/05/21 11:08:15;;;;;;;1.38;0.20;;;;;;;29.63;33.72;100709.84;4955577;28;20129;-79
2022/05/21 11:10:53;;;;;;;1.33;0.40;;;;;;;29.57;30.93;100704.13;4971018;28;20457;-80
2022/05/21 11:13:26;;;;;;;67.00;5.93;;;;;;;29.50;33.21;100700.25;4983783;28;20038;-79
2022/05/21 11:15:56;;;;;;;1.88;0.32;;;;;;;30.08;32.61;100701.59;4998581;28;20029;-79
2022/05/21 11:18:39;;;;;;;1.02;0.40;;;;;;;30.03;32.77;100698.47;4994455;28;20033;-79
2022/05/21 11:21:23;;;;;;;;;;;;;;;30.06;34.58;100695.38;5002181;28;20033;-80
2022/05/21 11:24:05;;;;;;;1.05;0.40;;;;;;;30.67;32.94;100699.00;5013972;28;19936;-79
2022/05/21 11:26:47;;;;;;;0.60;0.30;;;;;;;30.95;33.46;100705.22;5014424;28;20109;-79
2022/05/21 11:29:16;;;;;;;1.80;0.40;;;;;;;31.03;33.68;100698.88;5014001;28;20072;-79
2022/05/21 11:37:43;;;;;;;2.05;0.45;;;;;;;31.21;30.39;100692.28;5013803;28;20088;-79
2022/05/21 11:40:48;;;;;;;1.58;0.50;;;;;;;31.42;32.99;100692.72;5012940;28;20451;-78
2022/05/21 11:43:14;;;;;;;4.03;0.60;;;;;;;31.54;33.75;100694.16;4995720;28;20030;-79
2022/05/21 11:45:39;;;;;;;1.73;0.30;;;;;;;31.86;32.74;100680.47;4995851;28;20115;-79
2022/05/21 11:48:16;;;;;;;5.57;0.70;;;;;;;32.09;30.65;100699.97;5013863;28;20029;-79
2022/05/21 11:50:41;;;;;;;1.80;0.30;;;;;;;31.82;30.17;100684.59;5013260;28;20038;-79
2022/05/21 11:53:28;;;;;;;2.42;0.35;;;;;;;31.72;30.75;100702.28;5004936;28;20048;-79
2022/05/21 11:56:05;;;;;;;1.02;0.35;;;;;;;31.55;30.15;100697.78;5012095;28;20026;-78
2022/05/21 11:58:58;;;;;;;1.40;0.38;;;;;;;31.66;31.07;100692.81;5013102;28;20039;-79
2022/05/21 12:01:46;;;;;;;0.50;0.20;;;;;;;31.31;31.46;100694.88;5013436;28;20100;-79
2022/05/21 12:04:44;;;;;;;2.22;0.90;;;;;;;31.37;32.09;100686.03;5000569;28;20096;-79
2022/05/21 12:07:17;;;;;;;2.92;0.30;;;;;;;31.94;31.92;100672.22;4995380;28;20053;-79
2022/05/21 12:10:02;;;;;;;1.30;0.30;;;;;;;31.80;31.04;100681.13;5013254;28;20100;-79
2022/05/21 12:12:28;;;;;;;0.60;0.60;;;;;;;31.66;29.40;100659.81;4995567;28;20042;-79
2022/05/21 12:15:18;;;;;;;0.65;0.20;;;;;;;31.85;30.69;100661.34;5012948;28;20025;-79